Overview Statistics Trail Chart Weather Telemetry Raw packets
 

This is the latest recevied weather packets stored in our database for station/object EA4HRG-10. If no packets are shown the sender has not sent any weather packets the latest 10 day(s).

<< 25 26 27 28 29 30 31 >>
Time Temp. Humidity Pressure Rain* Wind** Luminosity Snow
1788037837 16.67° C 39% 1019 hPa - - - -
1788036937 17.78° C 37% 1018.6 hPa - - - -
1788036037 18.33° C 36% 1018.4 hPa - - - -
1788035142 18.89° C 34% 1018 hPa - - - -
1788034237 19.44° C 33% 1017.7 hPa - - - -
1788033337 20.56° C 32% 1017.2 hPa - - - -
1788032437 21.67° C 30% 1016.5 hPa - - - -
1788031537 22.78° C 27% 1015.9 hPa - - - -
1788030637 23.89° C 26% 1015.4 hPa - - - -
1788029737 25.56° C 23% 1014.5 hPa - - - -
1788028837 26.67° C 22% 1013.9 hPa - - - -
1788027937 28.89° C 19% 1013.2 hPa - - - -
1788027037 30.56° C 17% 1012.3 hPa - - - -
1788026137 32.78° C 16% 1011.7 hPa - - - -
1788025237 33.89° C 15% 1011.1 hPa - - - -
1788024337 34.44° C 14% 1011 hPa - - - -
1788023437 34.44° C 14% 1011.1 hPa - - - -
1788022537 34.44° C 14% 1011 hPa - - - -
1788021637 35.56° C 14% 1010.8 hPa - - - -
1788020737 36.11° C 13% 1010.7 hPa - - - -
1788020415 35° C 15% 1010.9 hPa - - - -
1788019837 35° C 15% 1010.9 hPa - - - -
1788018937 36.11° C 13% 1010.8 hPa - - - -
1788018037 36.67° C 13% 1010.7 hPa - - - -
1788017137 36.11° C 14% 1011.1 hPa - - - -

* Rain since midnight (hover to see other rain measurements)
** Current wind speed in m/s (hover to see current wind gust speed)